Terminal Aerodrome Forecast
Issued by NWS

Home | Current Version | Previous Version | Text Only | Print | Product List | Glossary On
Versions: 1 2 3 4 5 6 7 8 9 10 11 12 13 14 15 16 17 18 19
000
FTUS46 KMTR 281100
TAFSTS
TAF
KSTS 281121Z 2812/2912 VRB03KT P6SM SCT250
      TEMPO 2812/2816 2SM BR SCT004
     FM281700 35005KT P6SM SCT250
     FM282200 16008KT P6SM SCT250
     FM290400 VRB03KT P6SM FEW150=

USA.gov is the U.S. government's official web portal to all federal, state and local government web resources and services.